Time;durP1;ratioP1;P1;durP2;ratioP2;P2;SDS_P1;SDS_P2;PMS_P1;PMS_P2;Temp;Humidity;BMP_temperature;BMP_pressure;BME280_temperature;BME280_humidity;BME280_pressure;Samples;Min_cycle;Max_cycle;Signal;HPM_P1;HPM_P2
2021/06/26 00:01:28;;;;;;;16.75;14.95;;;18.30;94.50;;;;;;5026997;28;20053;-91
2021/06/26 00:03:54;;;;;;;16.77;14.98;;;18.20;94.50;;;;;;5025539;28;20025;-92
2021/06/26 00:06:19;;;;;;;16.65;14.38;;;18.20;94.50;;;;;;5048400;28;20033;-90
2021/06/26 00:08:45;;;;;;;15.68;13.57;;;18.20;94.50;;;;;;5050420;28;20068;-90
2021/06/26 00:11:11;;;;;;;15.55;13.85;;;18.20;94.40;;;;;;5039284;28;20044;-90
2021/06/26 00:13:37;;;;;;;18.52;14.82;;;18.10;94.40;;;;;;5038341;28;20478;-90
2021/06/26 00:16:03;;;;;;;16.83;15.05;;;18.10;94.30;;;;;;5026262;28;20461;-90
2021/06/26 00:18:28;;;;;;;15.82;14.13;;;18.10;94.30;;;;;;5037368;28;20025;-90
2021/06/26 00:20:54;;;;;;;18.88;14.98;;;18.10;94.20;;;;;;5060202;28;20033;-89
2021/06/26 00:23:20;;;;;;;16.50;14.40;;;18.00;94.10;;;;;;5059797;28;20100;-91
2021/06/26 00:25:45;;;;;;;18.25;15.05;;;18.00;94.10;;;;;;5043536;28;20029;-91
2021/06/26 00:28:11;;;;;;;18.30;14.75;;;18.00;94.30;;;;;;5026295;28;20029;-90
2021/06/26 00:30:37;;;;;;;16.60;14.77;;;18.00;94.30;;;;;;5039436;28;20112;-90
2021/06/26 00:33:03;;;;;;;15.93;14.32;;;17.90;94.30;;;;;;5058063;28;20076;-91
2021/06/26 00:35:28;;;;;;;18.77;15.20;;;17.90;94.30;;;;;;5038700;28;20037;-90
2021/06/26 00:37:54;;;;;;;16.67;14.88;;;17.80;94.20;;;;;;5041437;28;20032;-90
2021/06/26 00:40:20;;;;;;;18.10;15.73;;;17.80;94.30;;;;;;5002640;28;20034;-88
2021/06/26 00:42:46;;;;;;;17.50;15.60;;;17.80;94.20;;;;;;5002861;28;20473;-88
2021/06/26 00:45:17;;;;;;;18.17;15.85;;;17.80;94.20;;;;;;5030274;28;20026;-87
2021/06/26 00:47:43;;;;;;;17.88;14.90;;;17.70;94.30;;;;;;5030711;28;20025;-89
2021/06/26 00:50:20;;;;;;;16.95;15.15;;;17.70;94.40;;;;;;5005746;28;20497;-89
2021/06/26 00:52:47;;;;;;;18.95;15.57;;;17.70;94.50;;;;;;5030747;28;20134;-89
2021/06/26 00:55:14;;;;;;;17.73;15.77;;;17.70;94.60;;;;;;5017952;28;20065;-88
2021/06/26 00:57:54;;;;;;;16.42;14.52;;;17.70;94.60;;;;;;5028204;28;20041;-89
2021/06/26 01:00:21;;;;;;;16.43;14.50;;;17.60;94.60;;;;;;5019358;28;20045;-89
2021/06/26 01:02:46;;;;;;;16.70;14.82;;;17.60;94.60;;;;;;5019404;28;20104;-88
2021/06/26 01:05:12;;;;;;;17.10;15.30;;;17.60;94.90;;;;;;5035621;28;20060;-89
2021/06/26 01:07:38;;;;;;;16.55;14.82;;;17.60;94.50;;;;;;5035709;28;20021;-89
2021/06/26 01:10:08;;;;;;;18.85;14.75;;;17.60;94.60;;;;;;5021347;28;20082;-89
2021/06/26 01:12:33;;;;;;;17.48;15.57;;;17.60;94.60;;;;;;5038744;28;20017;-89
2021/06/26 01:14:59;;;;;;;19.05;16.35;;;17.60;94.60;;;;;;4991817;28;20029;-88
2021/06/26 01:17:25;;;;;;;16.70;14.52;;;17.50;94.70;;;;;;5054989;28;20721;-89
2021/06/26 01:19:51;;;;;;;17.60;15.18;;;17.50;94.70;;;;;;5038195;28;20100;-89
2021/06/26 01:22:22;;;;;;;18.58;16.05;;;17.50;94.70;;;;;;5018599;28;20108;-88
2021/06/26 01:24:51;;;;;;;;;;;17.50;94.70;;;;;;5002057;28;20044;-88
2021/06/26 01:27:17;;;;;;;15.60;12.90;;;17.50;94.80;;;;;;5021869;28;20254;-88
2021/06/26 01:29:51;;;;;;;12.75;11.43;;;17.50;94.70;;;;;;5037612;28;20032;-89
2021/06/26 01:32:18;;;;;;;13.13;11.73;;;17.50;94.80;;;;;;5035568;28;20082;-88
2021/06/26 01:34:44;;;;;;;13.55;11.68;;;17.40;94.70;;;;;;5017456;28;20441;-88
2021/06/26 01:37:10;;;;;;;15.57;12.02;;;17.40;94.70;;;;;;5042055;28;20021;-88
2021/06/26 01:39:37;;;;;;;14.73;12.75;;;17.40;94.70;;;;;;5037341;28;20102;-89
2021/06/26 01:42:04;;;;;;;16.15;13.60;;;17.30;94.70;;;;;;5017473;28;20029;-89
2021/06/26 01:44:30;;;;;;;17.73;14.05;;;17.30;94.80;;;;;;5036528;28;20025;-88
2021/06/26 01:46:56;;;;;;;17.70;14.88;;;17.40;94.80;;;;;;5054870;28;20025;-89
2021/06/26 01:49:21;;;;;;;18.25;15.18;;;17.40;94.90;;;;;;5037501;28;20029;-89
2021/06/26 01:51:47;;;;;;;18.13;15.52;;;17.30;94.80;;;;;;5036171;28;20030;-89
2021/06/26 01:54:14;;;;;;;20.35;16.63;;;17.30;94.90;;;;;;5001241;28;20041;-89
2021/06/26 01:56:40;;;;;;;20.38;16.45;;;17.30;95.00;;;;;;5031078;28;20040;-89
2021/06/26 01:59:06;;;;;;;20.27;16.98;;;17.30;95.00;;;;;;5018450;28;20112;-89
2021/06/26 02:01:33;;;;;;;20.02;16.95;;;17.30;95.00;;;;;;5017980;28;20044;-88
2021/06/26 02:03:59;;;;;;;16.88;14.38;;;17.30;94.90;;;;;;5022267;28;20039;-88
2021/06/26 02:06:25;;;;;;;17.25;14.45;;;17.30;94.90;;;;;;5015037;28;20025;-88
2021/06/26 02:08:50;;;;;;;17.63;14.77;;;17.30;94.80;;;;;;5020124;28;20032;-87
2021/06/26 02:11:16;;;;;;;16.05;14.35;;;17.20;94.80;;;;;;5012434;28;20053;-89
2021/06/26 02:13:42;;;;;;;17.33;14.85;;;17.20;94.80;;;;;;5000698;28;20028;-89
2021/06/26 02:16:08;;;;;;;17.60;14.65;;;17.20;94.70;;;;;;5025734;28;20027;-89
2021/06/26 02:18:33;;;;;;;18.73;15.95;;;17.20;94.80;;;;;;5022868;28;20129;-88
2021/06/26 02:20:59;;;;;;;18.33;16.30;;;17.10;94.90;;;;;;5016376;28;20042;-86
2021/06/26 02:23:26;;;;;;;19.25;16.88;;;17.10;94.90;;;;;;5007655;28;20488;-89
2021/06/26 02:25:52;;;;;;;20.13;17.13;;;17.20;95.00;;;;;;5032618;28;20029;-88
2021/06/26 02:28:17;;;;;;;19.98;16.58;;;17.10;95.10;;;;;;4988781;28;20092;-89
2021/06/26 02:30:43;;;;;;;17.60;15.70;;;17.10;95.10;;;;;;5013586;28;20044;-88
2021/06/26 02:33:09;;;;;;;19.88;15.57;;;17.10;95.00;;;;;;5014618;28;20064;-89
2021/06/26 02:35:34;;;;;;;19.38;15.75;;;17.10;95.00;;;;;;5016557;28;20033;-88
2021/06/26 02:38:00;;;;;;;16.52;14.77;;;17.10;94.90;;;;;;5016704;28;20029;-88
2021/06/26 02:40:26;;;;;;;21.15;16.45;;;17.00;94.90;;;;;;5032496;28;20041;-88
2021/06/26 02:42:52;;;;;;;18.25;15.95;;;17.00;94.90;;;;;;5016665;28;20029;-89
2021/06/26 02:45:17;;;;;;;17.63;14.60;;;17.00;94.90;;;;;;5016615;28;20033;-88
2021/06/26 02:47:43;;;;;;;18.45;14.57;;;17.00;94.90;;;;;;5000494;28;20029;-88
2021/06/26 02:50:10;;;;;;;17.20;15.20;;;16.90;94.80;;;;;;5034070;28;20038;-88
2021/06/26 02:52:37;;;;;;;18.10;15.07;;;16.90;94.90;;;;;;5033316;28;20022;-88
2021/06/26 02:55:03;;;;;;;17.33;14.90;;;16.90;94.90;;;;;;5034237;28;20033;-88
2021/06/26 02:57:29;;;;;;;18.88;15.90;;;16.90;94.90;;;;;;5016878;28;20057;-89
2021/06/26 02:59:56;;;;;;;21.70;16.67;;;16.90;95.00;;;;;;5016654;28;20449;-88
2021/06/26 03:02:21;;;;;;;18.42;16.17;;;16.80;95.00;;;;;;5016494;28;20361;-89
2021/06/26 03:04:47;;;;;;;18.38;15.73;;;16.80;95.10;;;;;;5016844;28;20036;-89
2021/06/26 03:07:12;;;;;;;20.77;17.20;;;16.80;95.20;;;;;;5033109;28;20495;-90
2021/06/26 03:09:38;;;;;;;19.05;15.52;;;16.80;95.20;;;;;;5033410;28;20071;-88
2021/06/26 03:12:05;;;;;;;18.88;14.95;;;16.80;95.30;;;;;;5019643;28;20022;-88
2021/06/26 03:14:32;;;;;;;19.67;15.60;;;16.80;95.40;;;;;;5036426;28;20028;-88
2021/06/26 03:16:57;;;;;;;18.33;15.60;;;16.80;95.40;;;;;;5041808;28;20105;-90
2021/06/26 03:19:23;;;;;;;17.23;15.38;;;16.80;95.50;;;;;;5044789;28;20064;-89
2021/06/26 03:21:49;;;;;;;17.55;14.88;;;16.80;95.50;;;;;;5051047;28;20096;-89
2021/06/26 03:24:14;;;;;;;17.58;15.68;;;16.80;95.50;;;;;;5021146;28;20057;-90
2021/06/26 03:26:40;;;;;;;17.92;15.63;;;16.80;95.50;;;;;;5038892;28;20637;-90
2021/06/26 03:29:06;;;;;;;19.42;15.23;;;16.80;95.60;;;;;;5039671;28;20117;-90
2021/06/26 03:31:32;;;;;;;17.98;15.60;;;16.90;95.70;;;;;;5033026;28;20064;-89
2021/06/26 03:33:58;;;;;;;18.90;15.23;;;16.80;95.70;;;;;;5054277;28;20049;-89
2021/06/26 03:36:24;;;;;;;18.52;15.05;;;16.90;95.80;;;;;;5040187;28;20393;-89
2021/06/26 03:38:51;;;;;;;18.65;15.57;;;16.90;95.80;;;;;;5035969;28;20021;-89
2021/06/26 03:41:18;;;;;;;20.63;16.65;;;16.90;95.80;;;;;;5057439;28;20063;-90
2021/06/26 03:43:43;;;;;;;20.60;16.38;;;16.90;95.80;;;;;;5043743;28;20033;-89
2021/06/26 03:46:09;;;;;;;18.73;15.93;;;16.90;95.90;;;;;;5039670;28;20025;-90
2021/06/26 03:48:35;;;;;;;20.25;16.80;;;16.90;95.90;;;;;;5047549;28;20033;-90
2021/06/26 03:51:00;;;;;;;18.58;15.93;;;16.90;95.90;;;;;;5045847;28;20024;-89
2021/06/26 03:53:27;;;;;;;18.30;15.88;;;16.90;96.00;;;;;;5036786;28;20029;-90
2021/06/26 03:55:53;;;;;;;17.90;15.63;;;17.00;96.00;;;;;;5042551;28;20039;-89
2021/06/26 03:58:23;;;;;;;19.58;16.30;;;17.00;96.10;;;;;;5055510;28;20024;-88
2021/06/26 04:00:49;;;;;;;19.77;16.65;;;17.00;96.10;;;;;;5045313;28;20033;-90
2021/06/26 04:03:16;;;;;;;18.90;15.73;;;17.00;96.20;;;;;;5039021;28;20060;-89
2021/06/26 04:05:42;;;;;;;20.27;16.92;;;17.00;96.10;;;;;;5038850;28;20021;-89
2021/06/26 04:08:09;;;;;;;19.42;17.33;;;17.00;96.10;;;;;;5054007;28;20029;-89
2021/06/26 04:10:34;;;;;;;19.33;16.05;;;17.00;96.10;;;;;;5055186;28;20029;-89
2021/06/26 04:13:00;;;;;;;19.45;17.25;;;17.00;96.20;;;;;;5038841;28;20082;-90
2021/06/26 04:15:25;;;;;;;18.67;16.23;;;17.00;96.20;;;;;;5003758;28;20368;-89
2021/06/26 04:17:51;;;;;;;17.92;15.73;;;17.00;96.20;;;;;;5002864;28;20038;-90
2021/06/26 04:20:17;;;;;;;17.75;14.80;;;17.10;96.30;;;;;;5023264;28;20033;-90
2021/06/26 04:22:45;;;;;;;20.67;16.70;;;17.10;96.30;;;;;;5001987;28;20029;-89
2021/06/26 04:25:12;;;;;;;22.23;18.45;;;17.10;96.40;;;;;;5037754;28;20073;-88
2021/06/26 04:27:38;;;;;;;18.83;16.20;;;17.10;96.40;;;;;;5033059;28;20048;-87
2021/06/26 04:30:04;;;;;;;21.42;18.08;;;17.10;96.40;;;;;;5041349;28;20032;-88
2021/06/26 04:32:30;;;;;;;24.40;18.23;;;17.10;96.40;;;;;;5052187;28;20370;-86
2021/06/26 04:34:56;;;;;;;22.52;19.30;;;17.10;96.40;;;;;;5018621;28;20087;-88
2021/06/26 04:37:22;;;;;;;23.67;18.63;;;17.10;96.40;;;;;;5044047;28;20029;-89
2021/06/26 04:39:48;;;;;;;22.10;18.05;;;17.20;96.40;;;;;;5054062;28;20087;-88
2021/06/26 04:42:14;;;;;;;24.40;18.33;;;17.20;96.40;;;;;;5046599;28;20033;-87
2021/06/26 04:44:39;;;;;;;23.67;19.15;;;17.20;96.40;;;;;;5054330;28;20120;-88
2021/06/26 04:47:06;;;;;;;22.55;18.65;;;17.20;96.40;;;;;;5055054;28;20125;-88
2021/06/26 04:49:32;;;;;;;22.73;18.65;;;17.20;96.40;;;;;;5021104;28;20021;-89
2021/06/26 04:51:58;;;;;;;24.67;19.23;;;17.20;96.40;;;;;;5022037;28;20527;-89
2021/06/26 04:54:23;;;;;;;23.88;19.17;;;17.20;96.50;;;;;;5055399;28;20036;-90
2021/06/26 04:56:49;;;;;;;22.85;18.42;;;17.20;96.40;;;;;;5022031;28;20052;-88
2021/06/26 04:59:15;;;;;;;24.27;18.60;;;17.20;96.50;;;;;;5023129;28;20029;-88
2021/06/26 05:01:40;;;;;;;24.85;19.73;;;17.20;96.50;;;;;;5033791;28;20040;-88
2021/06/26 05:04:09;;;;;;;24.63;18.25;;;17.20;96.50;;;;;;5022500;28;20025;-88
2021/06/26 05:06:34;;;;;;;22.20;18.02;;;17.20;96.50;;;;;;5032469;28;20082;-89
2021/06/26 05:09:00;;;;;;;23.83;18.15;;;17.20;96.50;;;;;;5028007;28;20112;-89
2021/06/26 05:11:26;;;;;;;25.40;18.98;;;17.20;96.60;;;;;;5053648;28;20114;-90
2021/06/26 05:13:51;;;;;;;21.00;17.65;;;17.30;96.60;;;;;;5038788;28;20075;-90
2021/06/26 05:16:17;;;;;;;23.17;17.95;;;17.30;96.60;;;;;;5038782;28;20036;-91
2021/06/26 05:18:43;;;;;;;25.63;19.27;;;17.30;96.60;;;;;;5031937;28;20020;-89
2021/06/26 05:21:08;;;;;;;21.77;17.08;;;17.30;96.60;;;;;;5014485;28;20033;-89
2021/06/26 05:23:34;;;;;;;24.17;17.80;;;17.30;96.60;;;;;;5045744;28;20025;-90
2021/06/26 05:26:00;;;;;;;22.88;17.55;;;17.40;96.70;;;;;;5055237;28;20385;-90
2021/06/26 05:28:26;;;;;;;21.10;16.70;;;17.40;96.60;;;;;;5032326;28;20025;-89
2021/06/26 05:30:52;;;;;;;23.00;17.23;;;17.40;96.60;;;;;;5023295;28;20029;-90
2021/06/26 05:33:17;;;;;;;23.48;17.50;;;17.40;96.60;;;;;;5060187;28;20146;-89
2021/06/26 05:35:43;;;;;;;22.58;18.42;;;17.40;96.60;;;;;;5026103;28;20487;-89
2021/06/26 05:38:09;;;;;;;22.85;17.58;;;17.40;96.60;;;;;;5020977;28;20386;-89
2021/06/26 05:40:35;;;;;;;21.55;17.70;;;17.40;96.60;;;;;;5023205;28;20040;-89
2021/06/26 05:43:01;;;;;;;19.40;16.27;;;17.50;96.60;;;;;;5047783;28;20029;-89
2021/06/26 05:45:27;;;;;;;20.83;16.13;;;17.40;96.60;;;;;;5036149;28;20030;-89
2021/06/26 05:47:52;;;;;;;21.40;17.05;;;17.50;96.60;;;;;;5054246;28;20049;-90
2021/06/26 05:50:18;;;;;;;20.95;16.45;;;17.50;96.60;;;;;;5043094;28;20041;-90
2021/06/26 05:52:52;;;;;;;22.15;17.45;;;17.50;96.70;;;;;;5045658;28;20026;-91
2021/06/26 05:55:19;;;;;;;22.17;17.92;;;17.50;96.70;;;;;;5046018;28;20025;-90
2021/06/26 05:57:45;;;;;;;20.20;16.23;;;17.50;96.60;;;;;;5049682;28;20029;-90
2021/06/26 06:00:13;;;;;;;21.02;17.30;;;17.50;96.60;;;;;;5038252;28;20071;-90
2021/06/26 06:02:39;;;;;;;21.98;16.20;;;17.50;96.60;;;;;;5027852;28;20029;-91
2021/06/26 06:05:08;;;;;;;20.23;16.65;;;17.60;96.70;;;;;;5035990;28;20047;-91
2021/06/26 06:07:35;;;;;;;25.23;17.33;;;17.60;96.70;;;;;;5061706;28;20021;-91
2021/06/26 06:10:01;;;;;;;22.63;17.48;;;17.60;96.70;;;;;;5083425;28;20494;-92
2021/06/26 06:12:26;;;;;;;22.38;16.90;;;17.60;96.70;;;;;;5068942;28;20033;-91
2021/06/26 06:14:52;;;;;;;23.20;18.75;;;17.60;96.70;;;;;;5062923;28;20039;-89
2021/06/26 06:17:18;;;;;;;23.23;18.40;;;17.60;96.70;;;;;;5035401;28;20409;-90
2021/06/26 06:19:43;;;;;;;23.05;18.88;;;17.60;96.70;;;;;;5040796;28;20461;-91
2021/06/26 06:22:09;;;;;;;25.55;19.45;;;17.70;96.70;;;;;;5000015;28;20175;-90
2021/06/26 06:24:35;;;;;;;25.45;19.83;;;17.70;96.70;;;;;;5013362;28;20423;-90
2021/06/26 06:27:01;;;;;;;27.20;20.35;;;17.70;96.70;;;;;;5024471;28;20025;-89
2021/06/26 06:29:27;;;;;;;25.75;20.08;;;17.70;96.70;;;;;;5012775;28;20092;-89
2021/06/26 06:31:52;;;;;;;27.10;20.45;;;17.70;96.70;;;;;;5065818;28;20029;-88
2021/06/26 06:34:18;;;;;;;24.88;19.80;;;17.80;96.80;;;;;;5072050;28;20017;-89
2021/06/26 06:36:44;;;;;;;22.35;17.83;;;17.80;96.80;;;;;;5041466;28;20132;-91
2021/06/26 06:39:10;;;;;;;22.55;17.27;;;17.80;96.80;;;;;;5054326;28;20036;-90
2021/06/26 06:41:36;;;;;;;23.48;16.92;;;17.90;96.80;;;;;;5031281;28;20036;-92
2021/06/26 06:44:02;;;;;;;21.70;17.17;;;17.90;96.80;;;;;;5018176;28;20021;-90
2021/06/26 06:46:28;;;;;;;22.88;17.55;;;17.90;96.80;;;;;;5048004;28;20025;-90
2021/06/26 06:48:53;;;;;;;21.08;16.70;;;18.00;96.80;;;;;;5029315;28;20053;-88
2021/06/26 06:51:19;;;;;;;21.70;17.63;;;18.00;96.80;;;;;;5030167;28;20130;-90
2021/06/26 06:53:44;;;;;;;20.67;16.08;;;18.10;96.80;;;;;;5032246;28;20164;-90
2021/06/26 06:56:10;;;;;;;19.17;15.55;;;18.10;96.80;;;;;;5047232;28;20171;-88
2021/06/26 06:58:36;;;;;;;20.55;15.20;;;18.20;96.80;;;;;;5006955;28;20112;-89
2021/06/26 07:01:02;;;;;;;19.67;14.93;;;18.20;96.80;;;;;;5035563;28;20477;-90
2021/06/26 07:03:27;;;;;;;16.30;13.98;;;18.20;96.90;;;;;;5035551;28;20091;-90
2021/06/26 07:05:53;;;;;;;18.55;14.75;;;18.30;96.90;;;;;;5035565;28;20029;-89
2021/06/26 07:08:19;;;;;;;17.48;14.43;;;18.30;96.90;;;;;;5027730;28;20112;-90
2021/06/26 07:10:44;;;;;;;20.30;16.73;;;18.40;96.90;;;;;;5052224;28;20120;-89
2021/06/26 07:13:11;;;;;;;17.67;14.88;;;18.40;96.90;;;;;;5019407;28;20448;-90
2021/06/26 07:15:37;;;;;;;15.07;12.82;;;18.50;96.90;;;;;;5053490;28;20420;-90
2021/06/26 07:18:03;;;;;;;16.40;13.27;;;18.50;96.80;;;;;;5035281;28;20022;-90
2021/06/26 07:20:29;;;;;;;15.82;13.35;;;18.60;96.80;;;;;;5034246;28;20033;-91
2021/06/26 07:22:55;;;;;;;17.83;14.65;;;18.60;96.80;;;;;;5036264;28;20033;-91
2021/06/26 07:25:22;;;;;;;17.92;15.07;;;18.70;96.90;;;;;;5019721;28;20025;-93
2021/06/26 07:27:51;;;;;;;20.63;16.45;;;18.70;96.80;;;;;;5036437;28;20028;-93
2021/06/26 07:30:16;;;;;;;18.35;15.50;;;18.80;96.80;;;;;;5035692;28;20033;-91
2021/06/26 07:32:44;;;;;;;17.50;13.05;;;18.80;96.70;;;;;;5008823;28;20046;-91
2021/06/26 07:35:10;;;;;;;15.95;13.20;;;18.90;96.70;;;;;;5015788;28;20123;-92
2021/06/26 07:37:35;;;;;;;14.48;12.18;;;18.90;96.60;;;;;;5035276;28;20421;-92
2021/06/26 07:40:01;;;;;;;15.13;12.98;;;19.00;96.60;;;;;;4992168;28;20045;-92
2021/06/26 07:42:26;;;;;;;15.70;13.30;;;19.00;96.60;;;;;;5032353;28;20029;-91
2021/06/26 07:44:52;;;;;;;14.57;12.93;;;19.10;96.60;;;;;;5017533;28;20481;-92
2021/06/26 07:47:18;;;;;;;16.00;12.95;;;19.10;96.50;;;;;;5016556;28;20029;-93
2021/06/26 07:49:43;;;;;;;15.38;13.43;;;19.20;96.50;;;;;;5032961;28;20028;-92
2021/06/26 07:52:09;;;;;;;14.07;11.95;;;19.30;96.50;;;;;;5018979;28;20044;-88
2021/06/26 07:54:35;;;;;;;12.98;10.75;;;19.40;96.40;;;;;;5005410;28;20033;-75
2021/06/26 07:57:01;;;;;;;14.60;11.85;;;19.50;96.50;;;;;;5035135;28;20381;-76
2021/06/26 07:59:26;;;;;;;15.25;12.98;;;19.50;96.50;;;;;;5033339;28;20025;-76
2021/06/26 08:01:52;;;;;;;14.48;11.95;;;19.60;96.40;;;;;;5033226;28;20157;-78
2021/06/26 08:04:19;;;;;;;15.25;12.23;;;19.60;96.30;;;;;;5028149;28;20806;-76
2021/06/26 08:06:45;;;;;;;16.17;12.20;;;19.70;96.30;;;;;;5033776;28;20080;-78
2021/06/26 08:09:10;;;;;;;14.48;12.38;;;19.80;96.20;;;;;;5019512;28;20501;-78
2021/06/26 08:11:36;;;;;;;15.75;12.68;;;19.90;96.10;;;;;;5023371;28;20571;-78
2021/06/26 08:14:02;;;;;;;15.32;12.95;;;19.90;95.90;;;;;;5042131;28;20045;-78
2021/06/26 08:16:28;;;;;;;15.02;11.75;;;20.00;95.80;;;;;;5020900;28;20017;-77
2021/06/26 08:18:54;;;;;;;16.23;14.10;;;20.10;95.70;;;;;;5052308;28;20071;-77
2021/06/26 08:21:21;;;;;;;17.55;15.05;;;20.20;95.40;;;;;;5053582;28;20361;-76
2021/06/26 08:23:49;;;;;;;15.98;14.00;;;20.20;95.20;;;;;;5026307;28;20029;-77
2021/06/26 08:26:15;;;;;;;14.65;11.88;;;20.30;95.10;;;;;;5053610;28;20044;-77
2021/06/26 08:28:40;;;;;;;13.77;11.73;;;20.40;95.00;;;;;;5053295;28;20025;-78
2021/06/26 08:31:06;;;;;;;14.68;12.68;;;20.40;94.90;;;;;;5040272;28;20034;-77
2021/06/26 08:33:31;;;;;;;17.17;14.23;;;20.50;95.00;;;;;;5011135;28;20103;-79
2021/06/26 08:35:57;;;;;;;16.63;13.13;;;20.60;94.40;;;;;;5032994;28;20022;-78
2021/06/26 08:38:23;;;;;;;13.25;11.68;;;20.70;94.40;;;;;;5015797;28;20056;-76
2021/06/26 08:40:53;;;;;;;13.07;10.50;;;20.70;94.30;;;;;;5012646;28;20045;-76
2021/06/26 08:43:19;;;;;;;10.73;9.38;;;20.80;94.20;;;;;;5031508;28;20051;-77
2021/06/26 08:45:45;;;;;;;10.95;9.57;;;20.90;94.10;;;;;;5030231;28;20041;-77
2021/06/26 08:48:12;;;;;;;12.95;11.27;;;21.00;94.10;;;;;;5031944;28;20520;-77
2021/06/26 08:50:37;;;;;;;12.90;10.60;;;21.10;94.00;;;;;;5032767;28;20537;-90
2021/06/26 08:53:03;;;;;;;12.45;10.43;;;21.10;93.70;;;;;;5000117;28;20021;-87
2021/06/26 08:55:29;;;;;;;12.45;9.27;;;21.20;93.60;;;;;;5033529;28;20064;-87
2021/06/26 08:57:55;;;;;;;9.90;8.88;;;21.30;93.50;;;;;;5015558;28;20427;-85
2021/06/26 09:00:26;;;;;;;11.80;9.27;;;21.30;93.50;;;;;;4999021;28;20037;-85
2021/06/26 09:02:52;;;;;;;;;;;21.40;93.20;;;;;;4999297;28;20087;-85
2021/06/26 09:05:29;;;;;;;9.20;7.63;;;21.50;93.20;;;;;;5032800;28;19923;-87
2021/06/26 09:07:55;;;;;;;8.43;6.88;;;21.50;93.20;;;;;;5032523;28;20038;-85
2021/06/26 09:10:22;;;;;;;10.07;8.90;;;21.60;93.10;;;;;;5014597;28;20497;-85
2021/06/26 09:12:50;;;;;;;11.25;9.45;;;21.70;92.80;;;;;;5015300;28;20112;-87
2021/06/26 09:15:26;;;;;;;10.55;8.98;;;21.70;92.60;;;;;;5031926;28;20092;-85
2021/06/26 09:17:54;;;;;;;9.95;8.38;;;21.80;92.20;;;;;;5014634;28;20022;-85
2021/06/26 09:20:22;;;;;;;10.68;8.25;;;21.90;92.10;;;;;;5014837;28;20163;-85
2021/06/26 09:22:54;;;;;;;11.38;9.13;;;21.90;91.80;;;;;;5014670;28;20049;-86
2021/06/26 09:25:35;;;;;;;11.88;10.52;;;22.00;90.40;;;;;;5032305;28;20101;-86
2021/06/26 09:28:09;;;;;;;11.65;10.25;;;22.00;89.50;;;;;;5012823;28;20057;-86
2021/06/26 09:30:43;;;;;;;10.07;8.85;;;22.10;89.50;;;;;;5006723;28;20530;-85
2021/06/26 09:33:15;;;;;;;9.50;8.50;;;22.20;90.20;;;;;;5042801;28;20631;-85
2021/06/26 09:35:44;;;;;;;12.25;10.23;;;22.20;90.30;;;;;;5038625;28;20021;-86
2021/06/26 09:38:10;;;;;;;12.07;9.82;;;22.30;89.00;;;;;;5036268;28;20116;-84
2021/06/26 09:40:40;;;;;;;11.82;9.98;;;22.40;89.40;;;;;;5035547;28;20096;-85
2021/06/26 09:43:06;;;;;;;10.38;9.10;;;22.40;88.80;;;;;;5051817;28;20017;-85
2021/06/26 09:45:31;;;;;;;10.82;8.73;;;22.50;88.80;;;;;;5033796;28;20060;-82
2021/06/26 09:48:05;;;;;;;9.45;8.13;;;22.50;89.10;;;;;;5034148;28;20381;-83
2021/06/26 09:50:31;;;;;;;11.98;9.57;;;22.60;89.50;;;;;;5033997;28;20025;-84
2021/06/26 09:53:04;;;;;;;11.75;9.40;;;22.70;88.00;;;;;;5033825;28;20451;-84
2021/06/26 09:55:31;;;;;;;14.15;10.63;;;22.70;88.00;;;;;;5034216;28;20397;-82
2021/06/26 09:57:59;;;;;;;11.90;10.27;;;22.80;84.90;;;;;;5034034;28;20024;-82
2021/06/26 10:00:27;;;;;;;12.57;10.95;;;22.80;85.60;;;;;;5033832;28;20052;-82
2021/06/26 10:02:54;;;;;;;12.50;10.75;;;22.90;85.00;;;;;;5051937;28;20029;-89
2021/06/26 10:05:19;;;;;;;10.93;8.85;;;23.00;85.00;;;;;;5051445;28;20108;-82
2021/06/26 10:07:48;;;;;;;9.18;8.18;;;23.00;85.50;;;;;;5017445;28;20129;-82
2021/06/26 10:10:16;;;;;;;10.05;8.38;;;23.10;86.10;;;;;;5051421;28;20021;-82
2021/06/26 10:12:41;;;;;;;9.60;8.40;;;23.20;86.50;;;;;;5033478;28;20017;-83
2021/06/26 10:15:09;;;;;;;9.05;8.15;;;23.30;86.70;;;;;;5017146;28;20044;-82
2021/06/26 10:17:36;;;;;;;11.38;8.95;;;23.40;87.00;;;;;;5051223;28;20412;-82
2021/06/26 10:20:05;;;;;;;12.18;10.10;;;23.50;87.30;;;;;;5026980;28;20128;-82
2021/06/26 10:22:35;;;;;;;13.75;11.35;;;23.50;79.50;;;;;;5051327;28;20025;-82
2021/06/26 10:25:01;;;;;;;12.70;10.80;;;23.50;82.90;;;;;;5033476;28;20017;-82
2021/06/26 10:27:27;;;;;;;11.02;9.82;;;23.50;83.10;;;;;;5050094;28;20052;-83
2021/06/26 10:29:53;;;;;;;12.93;10.20;;;23.50;83.40;;;;;;5050317;28;20398;-83
2021/06/26 10:32:19;;;;;;;10.05;8.43;;;23.50;83.30;;;;;;5051119;28;20091;-82
2021/06/26 10:34:46;;;;;;;11.02;9.35;;;23.50;83.60;;;;;;5033227;28;20389;-82
2021/06/26 10:37:20;;;;;;;12.57;10.02;;;23.60;84.00;;;;;;5049714;28;20025;-84
2021/06/26 10:39:47;;;;;;;10.95;9.45;;;23.60;83.10;;;;;;5051421;28;20028;-83
2021/06/26 10:42:17;;;;;;;11.50;8.60;;;23.70;82.80;;;;;;5033079;28;20029;-83
2021/06/26 10:44:52;;;;;;;10.27;8.23;;;23.70;83.30;;;;;;5051514;28;20029;-84
2021/06/26 10:47:42;;;;;;;13.05;11.75;;;23.80;84.10;;;;;;5036722;28;20074;-83
2021/06/26 10:50:09;;;;;;;10.55;9.35;;;23.80;80.80;;;;;;5051089;28;20041;-82
2021/06/26 10:52:53;;;;;;;9.98;8.82;;;23.80;81.40;;;;;;5051098;28;20071;-84
2021/06/26 10:55:56;;;;;;;11.13;9.93;;;23.90;82.00;;;;;;5032544;28;20035;-83
2021/06/26 10:58:31;;;;;;;12.35;10.75;;;23.90;78.10;;;;;;5051795;28;20029;-83
2021/06/26 11:00:56;;;;;;;11.75;9.63;;;23.90;79.30;;;;;;5047674;28;20066;-82
2021/06/26 11:03:26;;;;;;;11.25;9.85;;;24.00;80.00;;;;;;5051121;28;20449;-82
2021/06/26 11:05:52;;;;;;;10.27;9.20;;;24.00;79.50;;;;;;5047566;28;20071;-83
2021/06/26 11:08:19;;;;;;;12.90;11.50;;;24.10;80.10;;;;;;5032908;28;20748;-84
2021/06/26 11:10:53;;;;;;;10.60;9.07;;;24.10;77.60;;;;;;5033392;28;20033;-79
2021/06/26 11:13:23;;;;;;;10.60;9.50;;;24.10;78.40;;;;;;5019308;28;20036;-79
2021/06/26 11:15:50;;;;;;;9.38;8.25;;;24.20;77.70;;;;;;5002629;28;20071;-80
2021/06/26 11:18:19;;;;;;;10.60;9.20;;;24.20;77.40;;;;;;5033106;28;20462;-79
2021/06/26 11:20:46;;;;;;;13.77;10.50;;;24.30;78.00;;;;;;5051009;28;20477;-87
2021/06/26 11:23:16;;;;;;;11.50;8.95;;;24.30;75.20;;;;;;5052441;28;20036;-84
2021/06/26 11:25:43;;;;;;;9.35;8.32;;;24.30;76.20;;;;;;5057559;28;20024;-91
2021/06/26 11:28:14;;;;;;;9.65;8.00;;;24.40;76.90;;;;;;5043221;28;20021;-89
2021/06/26 11:30:43;;;;;;;11.88;9.13;;;24.50;77.50;;;;;;5037273;28;20033;-92
2021/06/26 11:33:09;;;;;;;12.88;8.48;;;24.50;76.50;;;;;;5039720;28;20496;-94
2021/06/26 11:35:43;;;;;;;11.55;10.07;;;24.60;76.20;;;;;;5021724;28;20393;-91
2021/06/26 11:38:17;;;;;;;10.38;8.70;;;24.60;75.80;;;;;;5055999;28;20032;-89
2021/06/26 11:40:43;;;;;;;12.93;8.93;;;24.70;76.00;;;;;;5057006;28;20083;-88
2021/06/26 11:43:09;;;;;;;12.38;11.05;;;24.80;76.40;;;;;;5038823;28;20546;-89
2021/06/26 11:45:45;;;;;;;10.75;9.65;;;24.80;74.80;;;;;;5038469;28;20044;-85
2021/06/26 11:48:12;;;;;;;15.30;9.30;;;24.90;74.60;;;;;;5053872;28;20085;-78
2021/06/26 11:50:57;;;;;;;10.35;8.55;;;24.90;75.00;;;;;;5053282;28;20037;-77
2021/06/26 11:53:25;;;;;;;10.05;6.72;;;24.90;74.20;;;;;;5039974;28;20024;-79
2021/06/26 11:55:58;;;;;;;9.45;7.43;;;25.00;74.30;;;;;;5053032;28;20132;-77
2021/06/26 11:58:37;;;;;;;13.90;11.25;;;25.10;74.00;;;;;;5052486;28;20025;-80
2021/06/26 12:01:04;;;;;;;11.30;9.73;;;25.10;72.60;;;;;;5035238;28;20124;-79
2021/06/26 12:03:30;;;;;;;13.10;10.00;;;25.20;73.10;;;;;;5035625;28;20397;-78
2021/06/26 12:06:04;;;;;;;11.32;9.30;;;25.20;72.30;;;;;;5035703;28;20032;-77
2021/06/26 12:08:39;;;;;;;10.20;8.82;;;25.30;72.80;;;;;;5053362;28;20115;-76
2021/06/26 12:11:05;;;;;;;10.43;8.52;;;25.30;72.40;;;;;;5053600;28;20028;-78
2021/06/26 12:13:31;;;;;;;9.27;7.55;;;25.40;71.60;;;;;;5053331;28;20021;-76
2021/06/26 12:15:57;;;;;;;8.98;7.53;;;25.40;71.80;;;;;;5053568;28;20461;-75
2021/06/26 12:18:22;;;;;;;8.30;7.32;;;25.50;71.60;;;;;;5052935;28;20017;-77
2021/06/26 12:20:48;;;;;;;8.77;7.28;;;25.50;71.00;;;;;;5053690;28;20104;-76
2021/06/26 12:23:14;;;;;;;10.50;8.88;;;25.60;71.40;;;;;;5053424;28;20032;-78
2021/06/26 12:25:44;;;;;;;9.60;8.52;;;25.50;70.10;;;;;;5051812;28;20040;-75
2021/06/26 12:28:11;;;;;;;8.43;7.63;;;25.60;70.40;;;;;;5053794;28;20032;-79
2021/06/26 12:30:42;;;;;;;11.13;10.02;;;25.50;71.00;;;;;;5053012;28;20029;-82